LRSV/SCV METAR and TAF weather

Enter ICAO airport designator
Station Type Date Time Source
LRSV METAR 2021/06/24 05:00 UTC NOAA

LRSV 240500Z 33009KT CAVOK 22/18 Q1018


Station Type Date Time Source
LRSV Decoded METAR 2021/06/24 05:00 UTC NOAA

Suceava / Salcea, Romania (LRSV) 47-39N 026-15E 351M
Jun 24, 2021 - 01:00 AM EDT / 2021.06.24 0500 UTC
Wind: from the NNW (330 degrees) at 10 MPH (9 KT):0
Visibility: greater than 7 mile(s):0
Temperature: 71 F (22 C)
Dew Point: 64 F (18 C)
Relative Humidity: 78%
Pressure (altimeter): 30.06 in. Hg (1018 hPa)
ob: LRSV 240500Z 33009KT CAVOK 22/18 Q1018
cycle: 5

Station Type Date Time Source
LRSV TAF 2014/07/19 18:48 UTC NOAA

TAF LRSV 191800Z 1918/2024 CNL

Example: see airport list